createdAt,value
2022-07-31T00:00:07.371Z,7.20
2022-07-31T00:01:09.203Z,7.28
2022-07-31T00:02:10.774Z,9.65
2022-07-31T00:03:12.800Z,6.38
2022-07-31T00:04:14.811Z,5.60
2022-07-31T00:05:17.020Z,7.88
2022-07-31T00:06:19.372Z,6.72
2022-07-31T00:07:20.970Z,6.32
2022-07-31T00:08:22.531Z,5.68
2022-07-31T00:09:53.227Z,7.63
2022-07-31T00:10:45.761Z,7.28
2022-07-31T00:11:47.542Z,12.30
2022-07-31T00:12:49.343Z,8.25
2022-07-31T00:13:57.821Z,9.27
2022-07-31T00:15:00.748Z,9.27
2022-07-31T00:16:02.305Z,9.18
2022-07-31T00:17:04.210Z,8.23
2022-07-31T00:18:06.110Z,8.75
2022-07-31T00:19:07.766Z,8.88
2022-07-31T00:20:13.426Z,9.27
2022-07-31T00:21:15.142Z,7.80
2022-07-31T00:22:16.821Z,6.78
2022-07-31T00:23:18.934Z,6.63
2022-07-31T00:24:20.723Z,5.75
2022-07-31T00:25:22.311Z,5.55
2022-07-31T00:26:24.023Z,8.38
2022-07-31T00:27:25.669Z,8.57
2022-07-31T00:28:27.369Z,7.90
2022-07-31T00:29:28.998Z,7.70
2022-07-31T00:30:30.649Z,6.65
2022-07-31T00:31:32.364Z,6.13
2022-07-31T00:32:36.249Z,5.97
2022-07-31T00:33:37.856Z,5.72
2022-07-31T00:34:39.464Z,6.82
2022-07-31T00:35:41.091Z,5.65
2022-07-31T00:36:42.768Z,6.97
2022-07-31T00:37:44.751Z,7.22
2022-07-31T00:38:46.400Z,7.35
2022-07-31T00:39:48.041Z,7.18
2022-07-31T00:40:50.637Z,8.10
2022-07-31T00:41:52.362Z,8.18
2022-07-31T00:42:53.934Z,9.40
2022-07-31T00:43:55.481Z,8.60
2022-07-31T00:44:57.035Z,8.63
2022-07-31T00:46:00.906Z,8.63
2022-07-31T00:47:02.906Z,11.27
2022-07-31T00:48:06.325Z,10.95
2022-07-31T00:49:12.320Z,11.32
2022-07-31T00:50:14.005Z,9.88
2022-07-31T00:51:15.587Z,8.48
2022-07-31T00:52:17.162Z,11.05
2022-07-31T00:53:18.748Z,7.60
2022-07-31T00:54:22.638Z,7.97
2022-07-31T00:55:25.656Z,7.30
2022-07-31T00:56:27.401Z,8.48
2022-07-31T00:57:29.055Z,8.32
2022-07-31T00:58:30.636Z,9.88
2022-07-31T00:59:32.758Z,8.30
2022-07-31T01:00:34.385Z,9.55
2022-07-31T01:01:35.981Z,8.32
2022-07-31T01:02:38.480Z,11.57
2022-07-31T01:03:48.723Z,9.93
2022-07-31T01:04:50.594Z,10.07
2022-07-31T01:05:52.146Z,9.68
2022-07-31T01:06:54.710Z,9.05
2022-07-31T01:07:56.291Z,13.30
2022-07-31T01:08:57.872Z,11.63
2022-07-31T01:10:01.030Z,13.82
2022-07-31T01:11:11.144Z,9.77
2022-07-31T01:12:22.624Z,10.65
2022-07-31T01:13:35.629Z,11.25
2022-07-31T01:14:41.969Z,9.85
2022-07-31T01:15:45.184Z,9.20
2022-07-31T01:16:50.043Z,11.82
2022-07-31T01:17:53.151Z,10.15
2022-07-31T01:18:57.548Z,8.45
2022-07-31T01:19:59.829Z,9.27
2022-07-31T01:21:06.335Z,8.30
2022-07-31T01:22:35.362Z,6.70
2022-07-31T01:24:05.139Z,7.55
2022-07-31T01:25:30.650Z,7.95
2022-07-31T01:26:56.704Z,6.22
2022-07-31T01:28:19.077Z,6.55
2022-07-31T01:29:36.837Z,8.95
2022-07-31T01:31:10.720Z,9.82
2022-07-31T01:32:28.271Z,6.90
2022-07-31T01:33:34.540Z,8.40
2022-07-31T01:34:52.383Z,6.15
2022-07-31T01:36:06.432Z,6.10
2022-07-31T01:37:13.674Z,7.95
2022-07-31T01:38:20.911Z,6.95
2022-07-31T01:39:23.366Z,7.38
2022-07-31T01:40:35.588Z,8.35
2022-07-31T01:41:43.219Z,7.95
2022-07-31T01:42:55.282Z,8.77
2022-07-31T01:43:58.903Z,6.60
2022-07-31T01:45:03.097Z,6.82
2022-07-31T01:46:05.948Z,7.63
2022-07-31T01:47:09.156Z,8.00
2022-07-31T01:48:14.339Z,11.40
2022-07-31T01:49:19.157Z,7.95
2022-07-31T01:50:42.370Z,9.25
2022-07-31T01:51:45.665Z,6.40
2022-07-31T01:52:49.969Z,7.45
2022-07-31T01:53:53.552Z,9.73
2022-07-31T01:54:57.155Z,6.82
2022-07-31T01:56:03.528Z,6.68
2022-07-31T01:57:07.400Z,8.68
2022-07-31T01:58:10.113Z,5.97
2022-07-31T01:59:20.573Z,9.60
2022-07-31T02:00:33.437Z,8.20
2022-07-31T02:01:39.743Z,8.90
2022-07-31T02:02:43.816Z,7.32
2022-07-31T02:03:46.807Z,9.25
2022-07-31T02:04:55.365Z,8.02
2022-07-31T02:05:58.049Z,11.20
2022-07-31T02:07:02.547Z,9.50
2022-07-31T02:08:06.518Z,7.65
2022-07-31T02:09:08.272Z,7.80
2022-07-31T02:10:12.850Z,7.85
2022-07-31T02:11:19.857Z,8.23
2022-07-31T02:12:33.792Z,8.05
2022-07-31T02:13:37.519Z,8.55
2022-07-31T02:14:41.943Z,9.57
2022-07-31T02:15:44.633Z,6.20
2022-07-31T02:16:47.545Z,6.57
2022-07-31T02:17:50.618Z,11.07
2022-07-31T02:18:54.014Z,9.85
2022-07-31T02:20:00.248Z,6.88
2022-07-31T02:21:02.392Z,7.70
2022-07-31T02:22:05.186Z,4.25
2022-07-31T02:23:07.913Z,6.05
2022-07-31T02:24:09.831Z,6.57
2022-07-31T02:25:11.717Z,7.10
2022-07-31T02:26:16.260Z,9.70
2022-07-31T02:27:57.094Z,5.70
2022-07-31T02:28:43.780Z,10.13
2022-07-31T02:29:46.643Z,9.57
2022-07-31T02:30:49.764Z,8.68
2022-07-31T02:32:03.118Z,9.07
2022-07-31T02:33:09.114Z,7.70
2022-07-31T02:34:14.146Z,8.00
2022-07-31T02:35:17.432Z,7.85
2022-07-31T02:36:22.268Z,11.32
2022-07-31T02:37:25.551Z,8.95
2022-07-31T02:38:28.401Z,11.15
2022-07-31T02:39:32.676Z,9.48
2022-07-31T02:40:35.506Z,9.38
2022-07-31T02:41:37.448Z,8.32
2022-07-31T02:42:40.802Z,8.43
2022-07-31T02:43:44.373Z,7.65
2022-07-31T02:44:46.811Z,9.45
2022-07-31T02:45:48.838Z,8.90
2022-07-31T02:46:51.328Z,9.35
2022-07-31T02:47:54.376Z,10.88
2022-07-31T02:48:57.301Z,9.20
2022-07-31T02:49:59.366Z,8.20
2022-07-31T02:51:01.281Z,11.20
2022-07-31T02:52:05.447Z,7.93
2022-07-31T02:53:07.752Z,10.65
2022-07-31T02:54:09.459Z,9.60
2022-07-31T02:55:11.388Z,11.82
2022-07-31T02:56:16.136Z,8.18
2022-07-31T02:57:17.790Z,11.45
2022-07-31T02:58:19.986Z,9.40
2022-07-31T02:59:24.640Z,8.27
2022-07-31T03:00:29.261Z,11.32
2022-07-31T03:01:35.196Z,11.82
2022-07-31T03:02:37.923Z,11.05
2022-07-31T03:03:40.288Z,12.65
2022-07-31T03:04:42.148Z,11.40
2022-07-31T03:05:43.803Z,10.52
2022-07-31T03:06:45.415Z,10.25
2022-07-31T03:07:47.373Z,10.50
2022-07-31T03:08:49.306Z,12.18
2022-07-31T03:09:50.899Z,11.70
2022-07-31T03:10:52.522Z,13.02
2022-07-31T03:11:54.125Z,10.63
2022-07-31T03:12:56.920Z,10.15
2022-07-31T03:14:01.202Z,15.05
2022-07-31T03:15:03.966Z,12.02
2022-07-31T03:16:09.011Z,9.43
2022-07-31T03:17:11.537Z,8.98
2022-07-31T03:18:17.208Z,10.65
2022-07-31T03:19:22.952Z,9.00
2022-07-31T03:20:25.350Z,13.77
2022-07-31T03:21:27.788Z,9.60
2022-07-31T03:22:29.395Z,11.27
2022-07-31T03:23:36.445Z,11.15
2022-07-31T03:24:38.263Z,11.07
2022-07-31T03:25:41.431Z,10.82
2022-07-31T03:26:43.058Z,14.75
2022-07-31T03:27:44.857Z,13.85
2022-07-31T03:29:00.207Z,8.82
2022-07-31T03:30:02.105Z,11.65
2022-07-31T03:31:03.899Z,13.02
2022-07-31T03:32:06.582Z,10.38
2022-07-31T03:33:08.511Z,11.82
2022-07-31T03:34:11.990Z,13.07
2022-07-31T03:35:13.571Z,12.00
2022-07-31T03:36:15.299Z,12.85
2022-07-31T03:37:16.867Z,14.48
2022-07-31T03:38:32.897Z,15.30
2022-07-31T03:39:40.623Z,15.07
2022-07-31T03:40:42.264Z,14.45
2022-07-31T03:41:44.907Z,12.52
2022-07-31T03:42:48.928Z,17.55
2022-07-31T03:43:50.952Z,17.08
2022-07-31T03:44:53.886Z,15.50
2022-07-31T03:45:58.474Z,20.85
2022-07-31T03:47:00.756Z,17.25
2022-07-31T03:48:02.674Z,29.25
2022-07-31T03:49:05.259Z,17.38
2022-07-31T03:50:08.674Z,17.10
2022-07-31T03:51:10.397Z,19.60
2022-07-31T03:52:12.927Z,14.50
2022-07-31T03:53:14.925Z,17.95
2022-07-31T03:54:16.787Z,18.67
2022-07-31T03:55:18.753Z,18.65
2022-07-31T03:56:21.414Z,19.42
2022-07-31T03:57:27.093Z,17.70
2022-07-31T03:58:31.261Z,16.55
2022-07-31T03:59:40.712Z,19.25
2022-07-31T04:00:50.544Z,18.95
2022-07-31T04:01:56.924Z,19.60
2022-07-31T04:03:13.559Z,18.33
2022-07-31T04:04:17.867Z,18.25
2022-07-31T04:05:19.949Z,19.67
2022-07-31T04:06:21.692Z,23.17
2022-07-31T04:07:24.148Z,17.08
2022-07-31T04:08:25.729Z,18.88
2022-07-31T04:09:27.422Z,18.08
2022-07-31T04:10:29.105Z,19.60
2022-07-31T04:11:30.713Z,18.30
2022-07-31T04:12:32.437Z,11.38
2022-07-31T04:13:35.854Z,10.57
2022-07-31T04:14:37.480Z,8.00
2022-07-31T04:15:39.032Z,8.80
2022-07-31T04:16:40.595Z,11.77
2022-07-31T04:17:42.175Z,10.23
2022-07-31T04:18:43.769Z,9.40
2022-07-31T04:19:52.401Z,10.82
2022-07-31T04:20:53.999Z,9.35
2022-07-31T04:21:55.601Z,11.30
2022-07-31T04:22:57.180Z,13.05
2022-07-31T04:24:00.141Z,9.68
2022-07-31T04:25:01.939Z,8.70
2022-07-31T04:26:03.542Z,10.10
2022-07-31T04:27:09.373Z,8.90
2022-07-31T04:28:13.972Z,9.60
2022-07-31T04:29:15.560Z,11.52
2022-07-31T04:30:17.242Z,10.20
2022-07-31T04:31:18.870Z,8.95
2022-07-31T04:32:20.436Z,9.00
2022-07-31T04:33:22.073Z,10.00
2022-07-31T04:34:23.747Z,9.65
2022-07-31T04:35:25.334Z,12.13
2022-07-31T04:36:29.611Z,10.43
2022-07-31T04:37:35.114Z,9.68
2022-07-31T04:38:36.690Z,12.10
2022-07-31T04:39:38.534Z,9.35
2022-07-31T04:40:40.123Z,8.48
2022-07-31T04:41:41.768Z,9.52
2022-07-31T04:42:43.367Z,10.45
2022-07-31T04:43:45.079Z,11.82
2022-07-31T04:44:46.778Z,9.98
2022-07-31T04:45:48.371Z,11.38
2022-07-31T04:46:50.141Z,11.57
2022-07-31T04:47:51.775Z,14.02
2022-07-31T04:48:53.585Z,13.82
2022-07-31T04:49:55.208Z,18.45
2022-07-31T04:50:57.576Z,12.75
2022-07-31T04:52:00.050Z,17.92
2022-07-31T04:53:01.825Z,12.55
2022-07-31T04:54:03.431Z,15.50
2022-07-31T04:55:05.383Z,13.07
2022-07-31T04:56:25.766Z,18.25
2022-07-31T04:57:27.333Z,16.42
2022-07-31T04:58:28.959Z,17.00
2022-07-31T04:59:59.686Z,18.77
2022-07-31T05:00:52.308Z,14.07
2022-07-31T05:01:54.255Z,15.40
2022-07-31T05:02:55.888Z,13.65
2022-07-31T05:03:58.952Z,15.70
2022-07-31T05:05:00.575Z,15.43
2022-07-31T05:06:12.557Z,13.85
2022-07-31T05:07:14.148Z,16.42
2022-07-31T05:08:15.722Z,13.45
2022-07-31T05:09:26.032Z,13.02
2022-07-31T05:10:47.887Z,12.43
2022-07-31T05:11:50.231Z,17.33
2022-07-31T05:12:51.793Z,14.25
2022-07-31T05:13:56.322Z,13.93
2022-07-31T05:14:58.234Z,13.13
2022-07-31T05:15:59.924Z,13.27
2022-07-31T05:17:01.717Z,15.63
2022-07-31T05:18:03.381Z,14.15
2022-07-31T05:19:06.140Z,12.60
2022-07-31T05:20:16.434Z,13.68
2022-07-31T05:21:19.132Z,15.40
2022-07-31T05:22:20.800Z,14.40
2022-07-31T05:23:22.438Z,13.27
2022-07-31T05:24:33.583Z,12.27
2022-07-31T05:25:35.698Z,16.55
2022-07-31T05:26:38.711Z,16.73
2022-07-31T05:27:41.351Z,16.27
2022-07-31T05:28:43.979Z,17.48
2022-07-31T05:29:48.411Z,17.50
2022-07-31T05:30:50.026Z,16.95
2022-07-31T05:32:00.601Z,15.10
2022-07-31T05:33:02.673Z,25.42
2022-07-31T05:34:04.376Z,15.45
2022-07-31T05:35:06.475Z,19.20
2022-07-31T05:36:09.289Z,17.73
2022-07-31T05:37:10.875Z,21.23
2022-07-31T05:38:12.492Z,15.70
2022-07-31T05:39:14.208Z,17.65
2022-07-31T05:40:15.816Z,17.92
2022-07-31T05:41:17.611Z,17.83
2022-07-31T05:42:19.193Z,18.80
2022-07-31T05:43:20.815Z,17.88
2022-07-31T05:44:22.417Z,20.25
2022-07-31T05:45:24.073Z,16.13
2022-07-31T05:46:25.716Z,16.45
2022-07-31T05:47:40.034Z,17.63
2022-07-31T05:48:43.089Z,19.05
2022-07-31T05:49:44.644Z,20.52
2022-07-31T05:50:48.073Z,16.52
2022-07-31T05:51:54.512Z,21.48
2022-07-31T05:52:56.499Z,21.17
2022-07-31T05:53:58.152Z,21.27
2022-07-31T05:54:59.720Z,19.50
2022-07-31T05:56:01.294Z,18.75
2022-07-31T05:57:02.890Z,20.55
2022-07-31T05:58:04.541Z,16.55
2022-07-31T05:59:06.143Z,21.23
2022-07-31T06:00:08.920Z,16.58
2022-07-31T06:01:11.237Z,18.67
2022-07-31T06:02:12.914Z,22.08
2022-07-31T06:03:15.471Z,19.05
2022-07-31T06:04:17.068Z,19.60
2022-07-31T06:05:18.669Z,18.00
2022-07-31T06:06:20.257Z,19.52
2022-07-31T06:07:21.920Z,22.25
2022-07-31T06:08:23.642Z,18.33
2022-07-31T06:09:25.259Z,20.08
2022-07-31T06:10:28.301Z,20.05
2022-07-31T06:11:29.898Z,27.23
2022-07-31T06:12:31.516Z,21.63
2022-07-31T06:13:33.343Z,26.00
2022-07-31T06:14:34.897Z,22.00
2022-07-31T06:15:37.004Z,19.38
2022-07-31T06:16:41.533Z,21.17
2022-07-31T06:17:44.927Z,21.48
2022-07-31T06:18:46.741Z,20.60
2022-07-31T06:19:48.347Z,26.00
2022-07-31T06:20:50.017Z,22.95
2022-07-31T06:21:51.638Z,23.52
2022-07-31T06:22:56.060Z,23.73
2022-07-31T06:23:57.712Z,22.05
2022-07-31T06:24:59.648Z,22.80
2022-07-31T06:26:01.241Z,23.35
2022-07-31T06:27:03.425Z,22.58
2022-07-31T06:28:10.260Z,24.25
2022-07-31T06:29:12.310Z,27.67
2022-07-31T06:30:14.531Z,24.27
2022-07-31T06:31:22.609Z,23.23
2022-07-31T06:32:24.360Z,22.77
2022-07-31T06:33:36.701Z,23.70
2022-07-31T06:34:39.866Z,20.58
2022-07-31T06:35:41.516Z,22.20
2022-07-31T06:36:43.170Z,22.73
2022-07-31T06:37:44.880Z,21.50
2022-07-31T06:38:46.770Z,26.88
2022-07-31T06:39:55.368Z,22.05
2022-07-31T06:40:58.021Z,30.95
2022-07-31T06:41:59.742Z,27.73
2022-07-31T06:43:05.064Z,24.85
2022-07-31T06:44:08.670Z,23.48
2022-07-31T06:45:10.805Z,27.25
2022-07-31T06:46:13.885Z,25.30
2022-07-31T06:47:16.443Z,26.05
2022-07-31T06:48:18.144Z,25.08
2022-07-31T06:49:19.894Z,25.30
2022-07-31T06:50:21.593Z,23.52
2022-07-31T06:51:31.933Z,23.58
2022-07-31T06:52:34.200Z,24.63
2022-07-31T06:53:35.815Z,22.40
2022-07-31T06:54:37.480Z,24.10
2022-07-31T06:55:44.098Z,24.98
2022-07-31T06:56:46.279Z,26.08
2022-07-31T06:57:47.862Z,24.02
2022-07-31T06:58:49.514Z,23.83
2022-07-31T06:59:51.090Z,26.83
2022-07-31T07:00:52.661Z,26.95
2022-07-31T07:01:54.268Z,25.15
2022-07-31T07:02:55.861Z,26.10
2022-07-31T07:03:57.790Z,22.27
2022-07-31T07:05:05.717Z,23.27
2022-07-31T07:06:08.401Z,21.10
2022-07-31T07:07:09.964Z,27.42
2022-07-31T07:08:11.560Z,25.75
2022-07-31T07:09:13.149Z,23.83
2022-07-31T07:10:14.913Z,23.48
2022-07-31T07:11:16.747Z,23.63
2022-07-31T07:12:18.387Z,25.30
2022-07-31T07:13:20.417Z,26.77
2022-07-31T07:14:23.478Z,32.45
2022-07-31T07:15:25.043Z,27.08
2022-07-31T07:16:26.632Z,22.77
2022-07-31T07:17:29.609Z,26.63
2022-07-31T07:18:31.714Z,27.88
2022-07-31T07:19:34.690Z,28.35
2022-07-31T07:20:36.346Z,29.25
2022-07-31T07:21:37.911Z,31.88
2022-07-31T07:22:39.471Z,28.83
2022-07-31T07:23:41.344Z,30.23
2022-07-31T07:24:43.269Z,28.38
2022-07-31T07:25:44.994Z,26.08
2022-07-31T07:26:46.595Z,26.35
2022-07-31T07:27:48.339Z,24.40
2022-07-31T07:28:50.020Z,28.23
2022-07-31T07:29:51.643Z,22.92
2022-07-31T07:30:53.193Z,29.15
2022-07-31T07:31:54.753Z,29.35
2022-07-31T07:32:56.425Z,27.77
2022-07-31T07:33:58.097Z,29.23
2022-07-31T07:35:00.654Z,27.70
2022-07-31T07:36:02.496Z,31.60
2022-07-31T07:37:04.086Z,26.25
2022-07-31T07:38:06.050Z,26.38
2022-07-31T07:39:10.978Z,28.45
2022-07-31T07:40:12.711Z,26.00
2022-07-31T07:41:14.538Z,27.25
2022-07-31T07:42:20.177Z,28.90
2022-07-31T07:43:21.800Z,24.77
2022-07-31T07:44:23.407Z,32.10
2022-07-31T07:45:24.994Z,26.88
2022-07-31T07:46:26.691Z,28.13
2022-07-31T07:47:28.280Z,27.70
2022-07-31T07:48:51.132Z,27.58
2022-07-31T07:49:53.220Z,28.20
2022-07-31T07:50:54.821Z,29.42
2022-07-31T07:51:59.606Z,31.42
2022-07-31T07:53:02.019Z,27.38
2022-07-31T07:54:03.782Z,24.05
2022-07-31T07:55:06.544Z,26.60
2022-07-31T07:56:08.144Z,27.38
2022-07-31T07:57:14.602Z,27.02
2022-07-31T07:58:17.420Z,29.50
2022-07-31T07:59:18.970Z,32.63
2022-07-31T08:00:20.688Z,29.20
2022-07-31T08:01:22.457Z,31.58
2022-07-31T08:02:24.156Z,31.35
2022-07-31T08:03:49.288Z,30.95
2022-07-31T08:04:48.497Z,27.17
2022-07-31T08:05:50.091Z,27.73
2022-07-31T08:06:51.807Z,30.95
2022-07-31T08:07:53.477Z,26.90
2022-07-31T08:08:55.172Z,27.35
2022-07-31T08:10:00.132Z,25.85
2022-07-31T08:11:03.540Z,27.88
2022-07-31T08:12:05.987Z,28.48
2022-07-31T08:13:07.729Z,23.67
2022-07-31T08:14:09.661Z,26.75
2022-07-31T08:15:11.977Z,24.75
2022-07-31T08:16:13.578Z,23.27
2022-07-31T08:17:15.335Z,25.48
2022-07-31T08:18:17.951Z,21.65
2022-07-31T08:19:19.918Z,21.17
2022-07-31T08:20:21.560Z,18.38
2022-07-31T08:21:23.161Z,19.33
2022-07-31T08:22:24.838Z,21.88
2022-07-31T08:23:26.517Z,22.98
2022-07-31T08:24:28.138Z,16.83
2022-07-31T08:25:31.175Z,21.38
2022-07-31T08:26:52.218Z,20.30
2022-07-31T08:27:53.947Z,21.48
2022-07-31T08:28:56.131Z,17.35
2022-07-31T08:30:00.553Z,21.58
2022-07-31T08:31:03.001Z,16.77
2022-07-31T08:32:05.189Z,19.58
2022-07-31T08:33:07.099Z,14.65
2022-07-31T08:34:08.761Z,14.30
2022-07-31T08:35:10.422Z,13.27
2022-07-31T08:36:12.598Z,12.80
2022-07-31T08:37:52.589Z,17.13
2022-07-31T08:38:36.973Z,14.20
2022-07-31T08:39:38.611Z,17.42
2022-07-31T08:40:43.378Z,15.27
2022-07-31T08:41:45.841Z,15.27
2022-07-31T08:42:47.446Z,16.40
2022-07-31T08:44:01.725Z,17.65
2022-07-31T08:45:09.595Z,16.13
2022-07-31T08:46:13.006Z,17.27
2022-07-31T08:47:16.294Z,19.80
2022-07-31T08:48:22.312Z,16.55
2022-07-31T08:49:28.241Z,16.88
2022-07-31T08:50:30.889Z,17.42
2022-07-31T08:51:51.565Z,17.00
2022-07-31T08:53:02.582Z,17.98
2022-07-31T08:54:13.564Z,16.80
2022-07-31T08:55:54.703Z,16.65
2022-07-31T08:56:38.756Z,16.98
2022-07-31T08:57:40.497Z,16.20
2022-07-31T08:58:42.502Z,17.42
2022-07-31T08:59:44.283Z,17.73
2022-07-31T09:00:46.423Z,16.92
2022-07-31T09:01:48.059Z,15.00
2022-07-31T09:02:50.121Z,16.55
2022-07-31T09:03:53.137Z,15.35
2022-07-31T09:04:54.790Z,16.55
2022-07-31T09:05:56.402Z,17.65
2022-07-31T09:07:00.467Z,17.65
2022-07-31T09:08:03.687Z,16.73
2022-07-31T09:09:16.879Z,17.83
2022-07-31T09:10:27.608Z,17.60
2022-07-31T09:11:29.282Z,17.38
2022-07-31T09:12:34.231Z,16.77
2022-07-31T09:13:36.937Z,16.33
2022-07-31T09:14:38.596Z,16.67
2022-07-31T09:15:40.396Z,16.20
2022-07-31T09:16:47.309Z,18.15
2022-07-31T09:17:53.742Z,17.75
2022-07-31T09:19:52.580Z,16.88
2022-07-31T09:20:29.552Z,17.27
2022-07-31T09:21:45.600Z,18.55
2022-07-31T09:22:48.133Z,18.20
2022-07-31T09:23:49.905Z,17.83
2022-07-31T09:24:51.868Z,18.63
2022-07-31T09:25:58.354Z,19.23
2022-07-31T09:27:06.398Z,17.80
2022-07-31T09:28:08.253Z,16.83
2022-07-31T09:29:11.954Z,18.42
2022-07-31T09:30:14.254Z,17.75
2022-07-31T09:31:15.899Z,17.80
2022-07-31T09:32:20.248Z,17.63
2022-07-31T09:33:22.090Z,17.70
2022-07-31T09:34:28.788Z,16.60
2022-07-31T09:35:39.844Z,17.88
2022-07-31T09:36:43.247Z,17.75
2022-07-31T09:37:47.641Z,18.02
2022-07-31T09:38:59.007Z,17.58
2022-07-31T09:40:09.314Z,17.42
2022-07-31T09:41:56.652Z,18.17
2022-07-31T09:44:09.962Z,16.67
2022-07-31T09:45:18.907Z,16.73
2022-07-31T09:46:20.896Z,17.50
2022-07-31T09:47:31.171Z,17.80
2022-07-31T09:48:33.710Z,19.05
2022-07-31T09:49:37.005Z,16.83
2022-07-31T09:50:39.835Z,16.88
2022-07-31T09:51:46.991Z,16.70
2022-07-31T09:52:58.561Z,16.38
2022-07-31T09:54:00.136Z,15.77
2022-07-31T09:55:15.496Z,15.95
2022-07-31T09:56:18.457Z,17.65
2022-07-31T09:57:20.059Z,16.33
2022-07-31T09:58:23.232Z,17.80
2022-07-31T09:59:26.694Z,15.40
2022-07-31T10:00:28.885Z,15.95
2022-07-31T10:01:33.036Z,14.27
2022-07-31T10:02:36.119Z,14.60
2022-07-31T10:03:39.330Z,13.82
2022-07-31T10:04:43.080Z,15.10
2022-07-31T10:05:46.483Z,16.20
2022-07-31T10:06:50.752Z,14.82
2022-07-31T10:07:56.033Z,15.20
2022-07-31T10:08:58.964Z,17.77
2022-07-31T10:10:01.034Z,16.95
2022-07-31T10:11:05.753Z,13.38
2022-07-31T10:12:16.353Z,13.35
2022-07-31T10:13:20.732Z,12.85
2022-07-31T10:14:28.440Z,14.50
2022-07-31T10:15:31.498Z,13.70
2022-07-31T10:16:40.131Z,15.48
2022-07-31T10:17:45.735Z,15.77
2022-07-31T10:18:52.971Z,14.43
2022-07-31T10:20:01.205Z,14.90
2022-07-31T10:21:05.757Z,13.98
2022-07-31T10:22:09.983Z,13.90
2022-07-31T10:23:22.756Z,15.25
2022-07-31T10:24:28.352Z,14.13
2022-07-31T10:25:30.888Z,12.82
2022-07-31T10:26:57.701Z,12.63
2022-07-31T10:27:57.164Z,13.27
2022-07-31T10:28:59.429Z,12.57
2022-07-31T10:30:01.967Z,13.60
2022-07-31T10:31:03.868Z,12.77
2022-07-31T10:32:06.748Z,13.52
2022-07-31T10:33:40.812Z,12.50
2022-07-31T10:34:34.729Z,12.38
2022-07-31T10:35:43.715Z,14.45
2022-07-31T10:37:05.366Z,12.85
2022-07-31T10:38:19.995Z,12.70
2022-07-31T10:39:53.629Z,12.60
2022-07-31T10:41:09.912Z,11.65
2022-07-31T10:43:01.941Z,11.20
2022-07-31T10:44:35.399Z,12.25
2022-07-31T10:45:50.272Z,12.30
2022-07-31T10:46:53.317Z,12.30
2022-07-31T10:48:00.226Z,12.45
2022-07-31T10:49:08.749Z,12.30
2022-07-31T10:50:20.945Z,12.57
2022-07-31T10:51:23.372Z,12.05
2022-07-31T10:52:29.100Z,11.70
2022-07-31T10:53:41.454Z,12.40
2022-07-31T10:54:52.439Z,12.18
2022-07-31T10:56:05.772Z,12.20
2022-07-31T10:57:07.913Z,12.15
2022-07-31T10:58:12.179Z,12.23
2022-07-31T10:59:13.832Z,11.82
2022-07-31T11:00:18.194Z,13.23
2022-07-31T11:01:20.108Z,13.77
2022-07-31T11:02:32.661Z,13.23
2022-07-31T11:03:44.700Z,12.60
2022-07-31T11:04:46.429Z,12.30
2022-07-31T11:06:02.375Z,12.65
2022-07-31T11:07:14.844Z,10.98
2022-07-31T11:08:16.481Z,13.40
2022-07-31T11:09:26.324Z,12.27
2022-07-31T11:10:28.109Z,12.63
2022-07-31T11:11:37.185Z,11.55
2022-07-31T11:12:39.396Z,11.55
2022-07-31T11:13:56.743Z,12.45
2022-07-31T11:14:58.404Z,11.88
2022-07-31T11:16:04.798Z,12.10
2022-07-31T11:17:06.995Z,14.00
2022-07-31T11:18:25.685Z,11.75
2022-07-31T11:19:41.764Z,11.77
2022-07-31T11:20:47.028Z,11.30
2022-07-31T11:21:48.768Z,12.15
2022-07-31T11:22:58.794Z,12.88
2022-07-31T11:24:03.063Z,11.88
2022-07-31T11:25:06.891Z,13.15
2022-07-31T11:26:08.740Z,12.52
2022-07-31T11:27:10.287Z,11.52
2022-07-31T11:28:11.945Z,11.55
2022-07-31T11:29:59.264Z,13.05
2022-07-31T11:30:35.842Z,11.63
2022-07-31T11:31:37.566Z,11.43
2022-07-31T11:32:39.400Z,12.00
2022-07-31T11:33:46.497Z,12.35
2022-07-31T11:34:53.840Z,11.43
2022-07-31T11:35:57.273Z,11.45
2022-07-31T11:36:58.954Z,12.32
2022-07-31T11:38:00.626Z,12.15
2022-07-31T11:39:03.647Z,11.57
2022-07-31T11:40:07.948Z,12.10
2022-07-31T11:41:10.482Z,11.70
2022-07-31T11:42:16.341Z,11.75
2022-07-31T11:43:26.239Z,13.25
2022-07-31T11:44:28.313Z,12.38
2022-07-31T11:45:33.447Z,13.18
2022-07-31T11:46:38.008Z,12.77
2022-07-31T11:48:11.293Z,12.98
2022-07-31T11:49:05.828Z,11.45
2022-07-31T11:50:10.496Z,11.82
2022-07-31T11:51:18.366Z,12.00
2022-07-31T11:52:30.960Z,10.90
2022-07-31T11:53:42.283Z,11.07
2022-07-31T11:54:43.900Z,11.13
2022-07-31T11:55:51.358Z,12.10
2022-07-31T11:56:57.298Z,12.48
2022-07-31T11:57:58.950Z,10.75
2022-07-31T11:59:00.596Z,11.82
2022-07-31T12:00:23.181Z,11.45
2022-07-31T12:01:29.796Z,10.88
2022-07-31T12:02:31.671Z,11.82
2022-07-31T12:03:38.486Z,10.75
2022-07-31T12:04:40.778Z,10.77
2022-07-31T12:05:49.359Z,11.70
2022-07-31T12:06:56.628Z,11.52
2022-07-31T12:07:58.523Z,11.45
2022-07-31T12:09:00.225Z,10.57
2022-07-31T12:10:03.784Z,12.32
2022-07-31T12:11:08.078Z,11.43
2022-07-31T12:12:11.807Z,12.18
2022-07-31T12:13:18.393Z,12.93
2022-07-31T12:14:33.980Z,10.68
2022-07-31T12:15:35.821Z,10.70
2022-07-31T12:16:41.623Z,10.70
2022-07-31T12:17:43.188Z,11.27
2022-07-31T12:18:57.033Z,9.45
2022-07-31T12:20:07.355Z,9.77
2022-07-31T12:21:09.265Z,10.43
2022-07-31T12:22:18.933Z,10.45
2022-07-31T12:23:38.694Z,10.18
2022-07-31T12:24:43.173Z,8.35
2022-07-31T12:25:46.427Z,9.90
2022-07-31T12:26:56.079Z,8.82
2022-07-31T12:27:57.749Z,8.90
2022-07-31T12:29:06.293Z,9.32
2022-07-31T12:30:17.424Z,9.23
2022-07-31T12:31:19.153Z,9.50
2022-07-31T12:32:25.794Z,9.50
2022-07-31T12:33:27.733Z,9.60
2022-07-31T12:34:40.793Z,10.05
2022-07-31T12:35:55.802Z,10.95
2022-07-31T12:36:59.569Z,9.68
2022-07-31T12:38:01.168Z,10.73
2022-07-31T12:39:04.917Z,9.55
2022-07-31T12:40:07.671Z,11.73
2022-07-31T12:41:09.593Z,10.45
2022-07-31T12:42:30.415Z,10.00
2022-07-31T12:43:33.243Z,9.50
2022-07-31T12:44:35.519Z,9.05
2022-07-31T12:45:38.460Z,9.38
2022-07-31T12:46:40.358Z,9.18
2022-07-31T12:47:41.958Z,8.93
2022-07-31T12:48:46.118Z,9.00
2022-07-31T12:49:48.149Z,10.27
2022-07-31T12:50:50.242Z,12.45
2022-07-31T12:51:51.844Z,8.80
2022-07-31T12:52:54.983Z,9.30
2022-07-31T12:53:56.627Z,9.48
2022-07-31T12:54:58.761Z,9.13
2022-07-31T12:56:00.359Z,9.63
2022-07-31T12:57:03.964Z,8.80
2022-07-31T12:58:05.781Z,9.40
2022-07-31T12:59:09.655Z,9.30
2022-07-31T13:00:11.677Z,9.23
2022-07-31T13:01:13.632Z,9.20
2022-07-31T13:02:15.344Z,9.52
2022-07-31T13:03:17.017Z,9.57
2022-07-31T13:04:19.698Z,10.77
2022-07-31T13:05:22.323Z,11.13
2022-07-31T13:06:26.504Z,8.82
2022-07-31T13:07:28.277Z,9.23
2022-07-31T13:08:30.055Z,9.15
2022-07-31T13:09:34.795Z,9.38
2022-07-31T13:10:36.364Z,9.02
2022-07-31T13:11:46.836Z,10.43
2022-07-31T13:13:19.289Z,9.48
2022-07-31T13:14:31.338Z,9.13
2022-07-31T13:15:40.559Z,8.90
2022-07-31T13:16:42.178Z,11.00
2022-07-31T13:17:48.127Z,9.55
2022-07-31T13:18:52.248Z,12.00
2022-07-31T13:19:53.841Z,9.05
2022-07-31T13:20:55.844Z,10.95
2022-07-31T13:23:13.013Z,9.52
2022-07-31T13:24:15.160Z,9.80
2022-07-31T13:25:16.847Z,8.85
2022-07-31T13:26:18.549Z,10.27
2022-07-31T13:27:20.137Z,9.68
2022-07-31T13:28:21.742Z,9.50
2022-07-31T13:29:23.376Z,9.30
2022-07-31T13:30:25.136Z,8.80
2022-07-31T13:31:27.006Z,9.15
2022-07-31T13:32:29.279Z,8.75
2022-07-31T13:33:30.883Z,8.65
2022-07-31T13:34:32.495Z,9.55
2022-07-31T13:35:34.305Z,9.50
2022-07-31T13:36:39.017Z,9.30
2022-07-31T13:37:42.457Z,10.27
2022-07-31T13:38:44.050Z,9.77
2022-07-31T13:39:45.739Z,9.27
2022-07-31T13:41:05.666Z,10.43
2022-07-31T13:42:07.402Z,9.20
2022-07-31T13:43:10.695Z,10.65
2022-07-31T13:44:12.645Z,10.35
2022-07-31T13:45:14.275Z,9.80
2022-07-31T13:46:15.904Z,10.18
2022-07-31T13:47:17.518Z,9.18
2022-07-31T13:48:19.267Z,10.60
2022-07-31T13:49:20.962Z,9.98
2022-07-31T13:50:22.544Z,11.52
2022-07-31T13:51:28.616Z,12.57
2022-07-31T13:52:30.756Z,11.32
2022-07-31T13:53:34.104Z,11.82
2022-07-31T13:54:35.976Z,10.05
2022-07-31T13:55:38.034Z,11.75
2022-07-31T13:56:43.517Z,10.35
2022-07-31T13:57:45.376Z,10.02
2022-07-31T13:58:47.283Z,10.30
2022-07-31T13:59:48.879Z,10.50
2022-07-31T14:00:50.538Z,10.40
2022-07-31T14:02:13.600Z,10.23
2022-07-31T14:03:15.252Z,10.60